createdAt,value
2023-04-27T00:00:21.393Z,30.08
2023-04-27T00:01:21.428Z,30.07
2023-04-27T00:02:21.726Z,30.05
2023-04-27T00:03:21.804Z,30.04
2023-04-27T00:04:21.748Z,30.10
2023-04-27T00:05:21.704Z,30.11
2023-04-27T00:06:21.692Z,30.07
2023-04-27T00:07:21.714Z,30.04
2023-04-27T00:08:21.785Z,30.08
2023-04-27T00:09:21.829Z,30.04
2023-04-27T00:10:21.887Z,30.08
2023-04-27T00:11:21.945Z,30.04
2023-04-27T00:12:22.021Z,30.07
2023-04-27T00:13:22.102Z,30.08
2023-04-27T00:14:22.090Z,30.08
2023-04-27T00:15:22.110Z,30.10
2023-04-27T00:16:22.165Z,30.09
2023-04-27T00:17:22.286Z,30.04
2023-04-27T00:18:22.213Z,30.13
2023-04-27T00:19:22.282Z,30.05
2023-04-27T00:20:22.310Z,30.09
2023-04-27T00:21:22.350Z,30.07
2023-04-27T00:22:22.365Z,30.08
2023-04-27T00:23:22.384Z,30.08
2023-04-27T00:24:22.390Z,30.11
2023-04-27T00:25:22.398Z,30.05
2023-04-27T00:26:22.456Z,30.11
2023-04-27T00:27:22.450Z,30.07
2023-04-27T00:28:22.476Z,30.09
2023-04-27T00:29:22.506Z,30.08
2023-04-27T00:30:22.510Z,30.10
2023-04-27T00:31:22.616Z,30.07
2023-04-27T00:32:22.615Z,30.07
2023-04-27T00:33:22.673Z,30.09
2023-04-27T00:34:22.718Z,30.08
2023-04-27T00:35:22.767Z,30.04
2023-04-27T00:36:22.832Z,30.11
2023-04-27T00:37:22.865Z,30.07
2023-04-27T00:38:22.908Z,30.11
2023-04-27T00:39:22.964Z,30.08
2023-04-27T00:40:23.009Z,30.07
2023-04-27T00:41:23.064Z,30.09
2023-04-27T00:42:23.072Z,30.07
2023-04-27T00:43:23.086Z,30.08
2023-04-27T00:44:23.104Z,30.06
2023-04-27T00:45:23.168Z,30.07
2023-04-27T00:46:23.221Z,30.12
2023-04-27T00:47:23.289Z,30.08
2023-04-27T00:48:23.309Z,30.09
2023-04-27T00:49:23.357Z,30.08
2023-04-27T00:50:23.423Z,30.10
2023-04-27T00:51:23.483Z,30.07
2023-04-27T00:52:23.540Z,30.13
2023-04-27T00:53:23.623Z,30.05
2023-04-27T00:54:23.656Z,30.09
2023-04-27T00:55:23.725Z,30.08
2023-04-27T00:56:23.774Z,30.09
2023-04-27T00:57:23.828Z,30.09
2023-04-27T00:58:23.889Z,30.08
2023-04-27T00:59:23.953Z,30.09
2023-04-27T01:00:23.971Z,30.07
2023-04-27T01:01:24.121Z,30.12
2023-04-27T01:02:24.131Z,30.02
2023-04-27T01:03:24.228Z,30.02
2023-04-27T01:04:24.179Z,30.05
2023-04-27T01:05:24.080Z,30.05
2023-04-27T01:06:24.102Z,30.04
2023-04-27T01:07:24.108Z,30.06
2023-04-27T01:08:24.128Z,30.08
2023-04-27T01:09:24.153Z,30.08
2023-04-27T01:10:24.167Z,30.07
2023-04-27T01:11:24.181Z,30.08
2023-04-27T01:12:24.196Z,30.06
2023-04-27T01:13:24.208Z,30.05
2023-04-27T01:14:24.214Z,30.05
2023-04-27T01:15:24.222Z,30.08
2023-04-27T01:16:24.260Z,30.04
2023-04-27T01:17:24.328Z,30.09
2023-04-27T01:18:24.350Z,30.08
2023-04-27T01:19:24.410Z,30.07
2023-04-27T01:20:24.464Z,30.05
2023-04-27T01:21:24.533Z,30.11
2023-04-27T01:22:24.594Z,30.05
2023-04-27T01:23:24.650Z,30.02
2023-04-27T01:24:24.717Z,30.05
2023-04-27T01:25:24.806Z,30.09
2023-04-27T01:26:24.835Z,30.09
2023-04-27T01:27:24.889Z,30.06
2023-04-27T01:28:24.949Z,30.09
2023-04-27T01:29:25.014Z,30.09
2023-04-27T01:30:25.071Z,30.06
2023-04-27T01:31:25.141Z,30.08
2023-04-27T01:32:25.188Z,30.08
2023-04-27T01:33:25.284Z,30.06
2023-04-27T01:34:25.315Z,30.01
2023-04-27T01:35:28.140Z,30.04
2023-04-27T01:36:25.355Z,30.12
2023-04-27T01:37:25.357Z,30.02
2023-04-27T01:38:25.357Z,30.02
2023-04-27T01:39:25.351Z,30.06
2023-04-27T01:40:25.356Z,30.08
2023-04-27T01:41:25.366Z,30.04
2023-04-27T01:42:25.366Z,29.99
2023-04-27T01:43:25.364Z,30.03
2023-04-27T01:44:25.369Z,30.04
2023-04-27T01:45:25.356Z,30.06
2023-04-27T01:46:25.399Z,30.08
2023-04-27T01:47:25.367Z,30.06
2023-04-27T01:48:25.360Z,30.05
2023-04-27T01:49:25.401Z,30.05
2023-04-27T01:50:25.376Z,30.08
2023-04-27T01:51:25.372Z,30.10
2023-04-27T01:52:25.358Z,30.06
2023-04-27T01:53:25.361Z,30.06
2023-04-27T01:54:26.862Z,30.05
2023-04-27T01:55:25.361Z,30.06
2023-04-27T01:56:25.354Z,30.06
2023-04-27T01:57:25.356Z,30.04
2023-04-27T01:58:25.355Z,30.06
2023-04-27T01:59:25.357Z,30.03
2023-04-27T02:00:25.364Z,30.01
2023-04-27T02:01:25.575Z,30.09
2023-04-27T02:02:25.479Z,30.09
2023-04-27T02:03:25.538Z,30.08
2023-04-27T02:04:25.505Z,30.06
2023-04-27T02:05:25.468Z,30.02
2023-04-27T02:06:25.332Z,30.05
2023-04-27T02:07:25.334Z,30.09
2023-04-27T02:08:25.330Z,30.06
2023-04-27T02:09:25.330Z,30.08
2023-04-27T02:10:25.332Z,30.03
2023-04-27T02:11:25.326Z,30.05
2023-04-27T02:12:25.346Z,30.05
2023-04-27T02:13:25.347Z,30.08
2023-04-27T02:14:25.341Z,30.08
2023-04-27T02:15:25.339Z,30.04
2023-04-27T02:16:25.417Z,29.99
2023-04-27T02:17:25.368Z,30.01
2023-04-27T02:18:25.349Z,30.02
2023-04-27T02:19:25.350Z,30.03
2023-04-27T02:20:25.357Z,30.05
2023-04-27T02:21:25.378Z,30.04
2023-04-27T02:22:25.370Z,30.08
2023-04-27T02:23:25.407Z,30.06
2023-04-27T02:24:25.474Z,30.02
2023-04-27T02:25:25.537Z,30.02
2023-04-27T02:26:25.598Z,30.08
2023-04-27T02:27:25.673Z,30.05
2023-04-27T02:28:25.739Z,30.02
2023-04-27T02:29:25.813Z,30.04
2023-04-27T02:30:25.872Z,30.09
2023-04-27T02:31:26.017Z,30.09
2023-04-27T02:32:26.046Z,30.03
2023-04-27T02:33:26.910Z,30.08
2023-04-27T02:34:26.172Z,30.03
2023-04-27T02:35:26.231Z,30.06
2023-04-27T02:36:26.296Z,30.03
2023-04-27T02:37:26.386Z,30.08
2023-04-27T02:38:26.426Z,30.06
2023-04-27T02:39:26.497Z,30.03
2023-04-27T02:40:26.580Z,30.08
2023-04-27T02:41:26.641Z,30.06
2023-04-27T02:42:26.712Z,29.99
2023-04-27T02:43:26.792Z,30.04
2023-04-27T02:44:26.853Z,30.08
2023-04-27T02:45:26.927Z,30.08
2023-04-27T02:46:27.210Z,30.03
2023-04-27T02:47:27.078Z,30.03
2023-04-27T02:48:27.119Z,30.02
2023-04-27T02:49:27.197Z,30.03
2023-04-27T02:50:27.266Z,30.04
2023-04-27T02:51:27.314Z,30.06
2023-04-27T02:52:27.381Z,30.03
2023-04-27T02:53:27.467Z,30.06
2023-04-27T02:54:27.514Z,30.03
2023-04-27T02:55:27.645Z,30.06
2023-04-27T02:56:27.645Z,30.06
2023-04-27T02:57:27.713Z,30.00
2023-04-27T02:58:27.783Z,30.03
2023-04-27T02:59:27.858Z,30.04
2023-04-27T03:00:27.920Z,30.06
2023-04-27T03:01:28.073Z,30.04
2023-04-27T03:02:28.110Z,30.09
2023-04-27T03:03:28.305Z,30.06
2023-04-27T03:04:28.383Z,30.08
2023-04-27T03:05:28.242Z,30.07
2023-04-27T03:06:28.310Z,29.99
2023-04-27T03:07:28.379Z,30.03
2023-04-27T03:08:28.449Z,30.03
2023-04-27T03:09:28.531Z,30.06
2023-04-27T03:10:28.592Z,30.00
2023-04-27T03:11:28.659Z,30.06
2023-04-27T03:12:28.717Z,30.09
2023-04-27T03:13:28.788Z,30.04
2023-04-27T03:14:28.861Z,30.00
2023-04-27T03:15:28.926Z,30.06
2023-04-27T03:16:29.027Z,30.04
2023-04-27T03:17:29.040Z,30.04
2023-04-27T03:18:29.004Z,30.02
2023-04-27T03:19:29.026Z,30.02
2023-04-27T03:20:29.060Z,30.03
2023-04-27T03:21:29.050Z,30.03
2023-04-27T03:22:29.066Z,30.02
2023-04-27T03:23:29.077Z,30.01
2023-04-27T03:24:29.077Z,29.98
2023-04-27T03:25:29.128Z,29.98
2023-04-27T03:26:29.126Z,29.93
2023-04-27T03:27:29.183Z,29.88
2023-04-27T03:28:29.225Z,29.91
2023-04-27T03:29:29.263Z,29.91
2023-04-27T03:30:29.302Z,29.91
2023-04-27T03:31:29.410Z,29.90
2023-04-27T03:32:29.471Z,29.89
2023-04-27T03:33:29.487Z,29.89
2023-04-27T03:34:29.536Z,29.88
2023-04-27T03:35:29.577Z,29.89
2023-04-27T03:37:47.664Z,29.91
2023-04-27T03:38:48.625Z,29.90
2023-04-27T03:39:48.605Z,29.86
2023-04-27T03:40:48.603Z,29.86
2023-04-27T03:41:48.556Z,29.85
2023-04-27T03:42:48.532Z,29.79
2023-04-27T03:43:48.497Z,29.75
2023-04-27T03:44:48.470Z,29.74
2023-04-27T03:45:48.489Z,29.80
2023-04-27T03:46:48.408Z,29.76
2023-04-27T03:47:48.463Z,29.74
2023-04-27T03:48:48.353Z,29.77
2023-04-27T03:49:48.358Z,29.74
2023-04-27T03:50:48.318Z,29.67
2023-04-27T03:51:48.273Z,29.70
2023-04-27T03:52:48.261Z,29.70
2023-04-27T03:53:48.229Z,29.70
2023-04-27T03:54:48.226Z,29.68
2023-04-27T03:55:48.202Z,29.73
2023-04-27T03:56:48.184Z,29.71
2023-04-27T03:57:48.138Z,29.66
2023-04-27T03:58:48.109Z,29.68
2023-04-27T03:59:48.079Z,29.68
2023-04-27T04:00:47.058Z,29.69
2023-04-27T04:01:48.063Z,29.68
2023-04-27T04:02:48.234Z,29.65
2023-04-27T04:03:48.268Z,29.64
2023-04-27T04:04:48.035Z,29.65
2023-04-27T04:05:47.925Z,29.65
2023-04-27T04:06:47.899Z,29.64
2023-04-27T04:07:47.867Z,29.64
2023-04-27T04:08:47.844Z,29.64
2023-04-27T04:09:47.833Z,29.61
2023-04-27T04:10:47.788Z,29.60
2023-04-27T04:11:47.750Z,29.60
2023-04-27T04:12:47.748Z,29.63
2023-04-27T04:13:47.707Z,29.57
2023-04-27T04:14:47.680Z,29.59
2023-04-27T04:15:47.664Z,29.60
2023-04-27T04:16:47.631Z,29.60
2023-04-27T04:17:47.675Z,29.57
2023-04-27T04:18:47.563Z,29.59
2023-04-27T04:19:47.550Z,29.60
2023-04-27T04:20:47.525Z,29.57
2023-04-27T04:21:47.480Z,29.62
2023-04-27T04:22:47.453Z,29.57
2023-04-27T04:23:47.424Z,29.62
2023-04-27T04:24:47.400Z,29.57
2023-04-27T04:25:47.368Z,29.59
2023-04-27T04:26:47.345Z,29.60
2023-04-27T04:27:47.316Z,29.56
2023-04-27T04:28:47.511Z,29.55
2023-04-27T04:29:47.255Z,29.59
2023-04-27T04:30:47.225Z,29.59
2023-04-27T04:31:47.229Z,29.52
2023-04-27T04:32:47.214Z,29.55
2023-04-27T04:33:47.148Z,29.56
2023-04-27T04:34:47.118Z,29.53
2023-04-27T04:35:47.156Z,29.58
2023-04-27T04:36:47.116Z,29.54
2023-04-27T04:37:47.117Z,29.56
2023-04-27T04:38:47.111Z,29.52
2023-04-27T04:39:47.132Z,29.54
2023-04-27T04:40:47.166Z,29.52
2023-04-27T04:41:47.174Z,29.55
2023-04-27T04:42:47.193Z,29.52
2023-04-27T04:43:47.199Z,29.56
2023-04-27T04:44:47.246Z,29.52
2023-04-27T04:45:47.243Z,29.57
2023-04-27T04:46:47.303Z,29.49
2023-04-27T04:47:47.401Z,29.52
2023-04-27T04:48:47.301Z,29.54
2023-04-27T04:49:47.303Z,29.53
2023-04-27T04:50:47.321Z,29.52
2023-04-27T04:51:47.362Z,29.50
2023-04-27T04:52:47.393Z,29.51
2023-04-27T04:53:47.407Z,29.48
2023-04-27T04:54:47.448Z,29.47
2023-04-27T04:55:47.471Z,29.54
2023-04-27T04:56:47.525Z,29.48
2023-04-27T04:57:47.557Z,29.51
2023-04-27T04:58:47.591Z,29.51
2023-04-27T04:59:47.624Z,29.48
2023-04-27T05:00:47.672Z,29.53
2023-04-27T05:01:47.773Z,29.46
2023-04-27T05:02:47.822Z,29.48
2023-04-27T05:03:47.862Z,29.50
2023-04-27T05:04:47.810Z,29.51
2023-04-27T05:05:47.763Z,29.47
2023-04-27T05:06:47.811Z,29.51
2023-04-27T05:07:47.822Z,29.48
2023-04-27T05:08:47.916Z,29.53
2023-04-27T05:09:47.874Z,29.44
2023-04-27T05:10:47.897Z,29.43
2023-04-27T05:11:47.907Z,29.34
2023-04-27T05:12:47.923Z,29.31
2023-04-27T05:13:47.963Z,29.33
2023-04-27T05:14:47.968Z,29.27
2023-04-27T05:15:48.041Z,29.28
2023-04-27T05:16:48.030Z,29.27
2023-04-27T05:17:48.031Z,29.38
2023-04-27T05:18:48.036Z,29.60
2023-04-27T05:19:48.011Z,29.85
2023-04-27T05:20:48.415Z,30.01
2023-04-27T05:21:48.439Z,30.00
2023-04-27T05:22:48.420Z,29.93
2023-04-27T05:23:48.037Z,29.82
2023-04-27T05:24:48.010Z,29.77
2023-04-27T05:25:47.999Z,29.85
2023-04-27T05:26:48.426Z,29.84
2023-04-27T05:27:47.983Z,29.88
2023-04-27T05:28:47.997Z,29.99
2023-04-27T05:29:47.994Z,30.02
2023-04-27T05:30:48.036Z,30.09
2023-04-27T05:31:48.066Z,30.10
2023-04-27T05:32:48.020Z,30.21
2023-04-27T05:33:47.980Z,30.32
2023-04-27T05:34:49.531Z,30.37
2023-04-27T05:35:47.961Z,30.41
2023-04-27T05:36:47.945Z,30.51
2023-04-27T05:37:47.916Z,30.47
2023-04-27T05:38:47.919Z,30.58
2023-04-27T05:39:47.899Z,30.64
2023-04-27T05:40:47.864Z,30.69
2023-04-27T05:41:47.859Z,30.70
2023-04-27T05:42:47.921Z,30.76
2023-04-27T05:43:47.820Z,30.77
2023-04-27T05:44:47.808Z,30.80
2023-04-27T05:45:47.964Z,30.88
2023-04-27T05:46:47.773Z,31.06
2023-04-27T05:47:47.795Z,31.14
2023-04-27T05:48:47.760Z,31.14
2023-04-27T05:49:47.928Z,31.19
2023-04-27T05:50:47.694Z,31.42
2023-04-27T05:51:47.670Z,31.52
2023-04-27T05:52:47.941Z,31.63
2023-04-27T05:53:47.644Z,31.65
2023-04-27T05:54:47.616Z,31.61
2023-04-27T05:55:47.631Z,31.78
2023-04-27T05:56:47.577Z,31.65
2023-04-27T05:57:54.445Z,31.48
2023-04-27T05:58:54.939Z,31.58
2023-04-27T05:59:50.662Z,31.71
2023-04-27T06:00:54.825Z,31.54
2023-04-27T06:01:47.401Z,31.75
2023-04-27T06:02:47.569Z,31.50
2023-04-27T06:03:47.534Z,31.62
2023-04-27T06:04:47.387Z,31.81
2023-04-27T06:05:47.442Z,31.53
2023-04-27T06:06:50.479Z,31.77
2023-04-27T06:07:47.444Z,31.70
2023-04-27T06:08:50.411Z,31.57
2023-04-27T06:09:47.191Z,31.81
2023-04-27T06:10:47.447Z,31.77
2023-04-27T06:11:47.139Z,31.60
2023-04-27T06:12:47.445Z,31.74
2023-04-27T06:13:47.083Z,31.74
2023-04-27T06:14:47.060Z,31.71
2023-04-27T06:15:47.468Z,31.83
2023-04-27T06:16:47.021Z,31.77
2023-04-27T06:17:47.467Z,31.69
2023-04-27T06:18:46.962Z,31.90
2023-04-27T06:19:46.937Z,31.74
2023-04-27T06:20:47.041Z,31.86
2023-04-27T06:21:46.895Z,31.83
2023-04-27T06:22:46.905Z,31.81
2023-04-27T06:23:46.841Z,31.97
2023-04-27T06:24:46.828Z,31.75
2023-04-27T06:25:46.966Z,31.98
2023-04-27T06:26:46.781Z,31.83
2023-04-27T06:27:46.944Z,31.84
2023-04-27T06:28:49.930Z,31.92
2023-04-27T06:29:46.708Z,31.87
2023-04-27T06:30:46.956Z,31.98
2023-04-27T06:31:46.758Z,31.81
2023-04-27T06:32:47.676Z,31.84
2023-04-27T06:33:46.633Z,32.01
2023-04-27T06:34:46.615Z,31.91
2023-04-27T06:35:47.543Z,32.06
2023-04-27T06:36:46.594Z,32.00
2023-04-27T06:37:46.548Z,32.02
2023-04-27T06:38:46.530Z,32.03
2023-04-27T06:39:46.822Z,31.92
2023-04-27T06:40:47.090Z,32.09
2023-04-27T06:41:46.476Z,31.98
2023-04-27T06:42:46.448Z,32.05
2023-04-27T06:43:46.470Z,32.08
2023-04-27T06:44:47.496Z,31.97
2023-04-27T06:45:46.547Z,32.19
2023-04-27T06:46:46.384Z,32.06
2023-04-27T06:47:46.363Z,31.98
2023-04-27T06:48:46.339Z,32.13
2023-04-27T06:49:47.451Z,31.99
2023-04-27T06:50:46.307Z,32.04
2023-04-27T06:51:46.248Z,32.19
2023-04-27T06:52:46.288Z,31.99
2023-04-27T06:53:46.221Z,32.04
2023-04-27T06:54:46.463Z,32.19
2023-04-27T06:55:48.429Z,31.94
2023-04-27T06:56:46.415Z,32.14
2023-04-27T06:57:46.116Z,31.99
2023-04-27T06:58:46.110Z,32.09
2023-04-27T06:59:46.078Z,32.16
2023-04-27T07:00:46.098Z,31.99
2023-04-27T07:01:46.087Z,32.06
2023-04-27T07:02:46.548Z,32.10
2023-04-27T07:03:46.177Z,31.89
2023-04-27T07:04:46.044Z,31.95
2023-04-27T07:05:45.945Z,31.97
2023-04-27T07:06:45.930Z,32.14
2023-04-27T07:07:45.976Z,32.07
2023-04-27T07:08:49.152Z,32.01
2023-04-27T07:09:45.866Z,32.09
2023-04-27T07:10:45.862Z,32.16
2023-04-27T07:11:46.954Z,32.12
2023-04-27T07:12:45.824Z,31.98
2023-04-27T07:13:45.796Z,32.08
2023-04-27T07:14:45.812Z,32.04
2023-04-27T07:15:45.989Z,32.16
2023-04-27T07:16:45.752Z,32.08
2023-04-27T07:17:45.728Z,32.15
2023-04-27T07:18:45.682Z,32.06
2023-04-27T07:19:45.666Z,32.14
2023-04-27T07:20:45.977Z,32.03
2023-04-27T07:21:45.693Z,32.14
2023-04-27T07:22:45.705Z,32.05
2023-04-27T07:23:45.977Z,32.05
2023-04-27T07:24:45.796Z,32.04
2023-04-27T07:25:45.966Z,32.10
2023-04-27T07:26:45.812Z,32.01
2023-04-27T07:27:45.814Z,32.04
2023-04-27T07:28:45.967Z,32.04
2023-04-27T07:29:45.846Z,32.11
2023-04-27T07:30:45.965Z,32.07
2023-04-27T07:31:45.847Z,32.16
2023-04-27T07:32:45.890Z,32.03
2023-04-27T07:33:45.817Z,32.14
2023-04-27T07:34:53.519Z,32.07
2023-04-27T07:35:45.967Z,32.00
2023-04-27T07:36:45.748Z,32.05
2023-04-27T07:37:45.748Z,32.11
2023-04-27T07:38:45.693Z,32.05
2023-04-27T07:39:45.674Z,32.03
2023-04-27T07:40:46.048Z,32.11
2023-04-27T07:41:45.624Z,32.01
2023-04-27T07:42:45.629Z,32.07
2023-04-27T07:43:45.563Z,32.07
2023-04-27T07:44:45.539Z,32.04
2023-04-27T07:45:46.090Z,31.96
2023-04-27T07:46:45.493Z,31.96
2023-04-27T07:47:45.481Z,32.05
2023-04-27T07:48:45.481Z,31.87
2023-04-27T07:49:45.412Z,32.07
2023-04-27T07:50:45.512Z,32.00
2023-04-27T07:51:45.355Z,31.87
2023-04-27T07:52:45.473Z,32.04
2023-04-27T07:53:47.288Z,31.90
2023-04-27T07:54:45.712Z,31.93
2023-04-27T07:55:45.247Z,31.93
2023-04-27T07:56:45.246Z,31.90
2023-04-27T07:57:45.497Z,32.00
2023-04-27T07:58:45.156Z,31.90
2023-04-27T07:59:45.123Z,32.00
2023-04-27T08:00:45.091Z,31.86
2023-04-27T08:01:45.508Z,31.93
2023-04-27T08:02:45.320Z,31.98
2023-04-27T08:03:45.274Z,31.88
2023-04-27T08:04:45.214Z,32.00
2023-04-27T08:05:45.463Z,31.95
2023-04-27T08:06:45.760Z,32.06
2023-04-27T08:07:45.903Z,31.99
2023-04-27T08:08:45.479Z,31.99
2023-04-27T08:09:45.143Z,31.97
2023-04-27T08:10:45.497Z,31.92
2023-04-27T08:11:45.110Z,32.02
2023-04-27T08:12:45.523Z,31.93
2023-04-27T08:13:45.093Z,32.02
2023-04-27T08:14:45.066Z,31.93
2023-04-27T08:15:45.528Z,31.89
2023-04-27T08:16:45.835Z,31.96
2023-04-27T08:17:45.127Z,31.92
2023-04-27T08:18:45.108Z,31.89
2023-04-27T08:19:45.483Z,31.86
2023-04-27T08:20:45.071Z,31.94
2023-04-27T08:21:45.066Z,31.97
2023-04-27T08:22:45.086Z,31.89
2023-04-27T08:23:45.085Z,32.08
2023-04-27T08:24:45.124Z,31.91
2023-04-27T08:25:45.136Z,31.96
2023-04-27T08:26:45.160Z,31.86
2023-04-27T08:27:45.181Z,31.96
2023-04-27T08:28:45.222Z,32.01
2023-04-27T08:29:45.179Z,31.87
2023-04-27T08:30:45.210Z,32.01
2023-04-27T08:31:45.636Z,31.89
2023-04-27T08:32:45.272Z,31.97
2023-04-27T08:33:45.183Z,32.01
2023-04-27T08:34:45.182Z,31.82
2023-04-27T08:35:45.177Z,31.93
2023-04-27T08:36:45.504Z,31.85
2023-04-27T08:37:45.541Z,31.87
2023-04-27T08:38:45.172Z,31.92
2023-04-27T08:39:45.194Z,31.84
2023-04-27T08:40:45.170Z,31.83
2023-04-27T08:41:45.159Z,31.86
2023-04-27T08:42:45.483Z,31.82
2023-04-27T08:43:45.162Z,31.94
2023-04-27T08:44:45.522Z,31.86
2023-04-27T08:45:45.156Z,31.88
2023-04-27T08:46:45.315Z,31.87
2023-04-27T08:47:45.262Z,31.75
2023-04-27T08:48:45.511Z,31.86
2023-04-27T08:49:45.227Z,31.85
2023-04-27T08:50:45.219Z,31.78
2023-04-27T08:51:45.517Z,31.83
2023-04-27T08:52:45.222Z,31.70
2023-04-27T08:53:45.499Z,31.82
2023-04-27T08:54:45.255Z,31.79
2023-04-27T08:55:45.229Z,31.72
2023-04-27T08:56:45.502Z,31.85
2023-04-27T08:57:45.281Z,31.69
2023-04-27T08:58:45.243Z,31.78
2023-04-27T08:59:45.255Z,31.86
2023-04-27T09:00:45.306Z,31.76
2023-04-27T09:01:45.543Z,31.78
2023-04-27T09:02:45.368Z,31.78
2023-04-27T09:03:45.447Z,31.73
2023-04-27T09:04:45.377Z,31.90
2023-04-27T09:05:56.493Z,31.76
2023-04-27T09:06:45.505Z,31.78
2023-04-27T09:07:45.167Z,31.89
2023-04-27T09:08:45.146Z,31.82
2023-04-27T09:09:45.191Z,31.90
2023-04-27T09:10:45.863Z,31.84
2023-04-27T09:11:45.500Z,31.73
2023-04-27T09:12:48.225Z,31.97
2023-04-27T09:13:45.015Z,31.79
2023-04-27T09:14:45.006Z,31.83
2023-04-27T09:15:46.412Z,31.92
2023-04-27T09:16:45.209Z,31.76
2023-04-27T09:17:44.932Z,31.97
2023-04-27T09:18:44.871Z,31.87
2023-04-27T09:19:44.861Z,31.92
2023-04-27T09:20:44.811Z,31.94
2023-04-27T09:21:46.671Z,31.70
2023-04-27T09:22:44.808Z,31.83
2023-04-27T09:23:44.734Z,31.87
2023-04-27T09:24:44.698Z,31.70
2023-04-27T09:25:44.664Z,31.72
2023-04-27T09:26:45.023Z,31.86
2023-04-27T09:27:45.038Z,31.71
2023-04-27T09:28:44.688Z,31.72
2023-04-27T09:29:44.556Z,31.78
2023-04-27T09:30:45.012Z,31.83
2023-04-27T09:31:51.994Z,31.81
2023-04-27T09:32:45.588Z,31.89
2023-04-27T09:33:46.464Z,31.81
2023-04-27T09:34:44.425Z,31.85
2023-04-27T09:35:44.544Z,31.85
2023-04-27T09:36:44.346Z,31.73
2023-04-27T09:37:44.510Z,31.69
2023-04-27T09:38:44.319Z,31.74
2023-04-27T09:39:44.270Z,31.69
2023-04-27T09:40:44.231Z,31.69
2023-04-27T09:41:44.202Z,31.84
2023-04-27T09:42:44.533Z,31.76
2023-04-27T09:43:44.134Z,31.61
2023-04-27T09:44:44.526Z,31.69
2023-04-27T09:45:44.133Z,31.82
2023-04-27T09:46:44.530Z,31.69
2023-04-27T09:47:44.614Z,31.77
2023-04-27T09:48:43.996Z,31.94
2023-04-27T09:49:43.973Z,31.70
2023-04-27T09:50:43.950Z,31.71
2023-04-27T09:51:44.017Z,31.90
2023-04-27T09:52:43.889Z,31.86
2023-04-27T09:53:43.878Z,31.94
2023-04-27T09:54:43.824Z,31.96
2023-04-27T09:55:43.804Z,31.97
2023-04-27T09:56:44.019Z,32.00
2023-04-27T09:57:43.757Z,31.99
2023-04-27T09:58:44.031Z,31.94
2023-04-27T09:59:44.021Z,32.05
2023-04-27T10:00:43.866Z,31.93
2023-04-27T10:01:43.682Z,31.97
2023-04-27T10:02:53.098Z,32.12
2023-04-27T10:03:44.165Z,31.93
2023-04-27T10:04:43.670Z,32.03
2023-04-27T10:05:43.561Z,32.13
2023-04-27T10:06:43.511Z,32.00
2023-04-27T10:07:43.505Z,32.07
2023-04-27T10:08:43.472Z,32.11
2023-04-27T10:09:43.534Z,32.04
2023-04-27T10:10:43.419Z,32.09
2023-04-27T10:11:43.403Z,32.16
2023-04-27T10:12:43.364Z,32.07
2023-04-27T10:13:43.346Z,32.28
2023-04-27T10:14:43.524Z,32.18
2023-04-27T10:15:43.277Z,32.07
2023-04-27T10:16:43.588Z,32.10
2023-04-27T10:17:43.255Z,32.05
2023-04-27T10:18:43.528Z,32.15
2023-04-27T10:19:43.207Z,32.16
2023-04-27T10:20:43.170Z,32.10
2023-04-27T10:21:43.539Z,32.19
2023-04-27T10:22:43.116Z,32.01
2023-04-27T10:23:43.534Z,32.02
2023-04-27T10:24:43.535Z,32.17
2023-04-27T10:25:43.094Z,32.02
2023-04-27T10:26:43.033Z,32.10
2023-04-27T10:27:43.024Z,32.10
2023-04-27T10:28:43.052Z,32.15
2023-04-27T10:29:42.960Z,31.94
2023-04-27T10:30:42.980Z,31.99
2023-04-27T10:31:42.921Z,32.08
2023-04-27T10:32:43.088Z,31.84
2023-04-27T10:33:42.874Z,31.83
2023-04-27T10:34:43.038Z,32.00
2023-04-27T10:35:42.855Z,32.06
2023-04-27T10:36:42.852Z,32.08
2023-04-27T10:37:42.865Z,31.95
2023-04-27T10:38:42.862Z,31.97
2023-04-27T10:39:47.821Z,31.99
2023-04-27T10:40:42.856Z,31.81
2023-04-27T10:41:42.831Z,31.74
2023-04-27T10:42:43.538Z,31.82
2023-04-27T10:43:42.782Z,31.90
2023-04-27T10:44:43.057Z,31.72
2023-04-27T10:45:42.795Z,31.60
2023-04-27T10:46:43.245Z,31.80
2023-04-27T10:47:42.753Z,31.77
2023-04-27T10:48:42.669Z,31.60
2023-04-27T10:49:43.045Z,31.59
2023-04-27T10:50:42.715Z,31.67
2023-04-27T10:51:42.668Z,31.78
2023-04-27T10:52:42.593Z,31.64
2023-04-27T10:53:42.593Z,31.67
2023-04-27T10:54:43.047Z,31.83
2023-04-27T10:55:42.529Z,31.80
2023-04-27T10:56:42.505Z,31.69
2023-04-27T10:57:42.483Z,31.71
2023-04-27T10:58:48.863Z,31.70
2023-04-27T10:59:42.564Z,31.58
2023-04-27T11:00:42.414Z,31.61
2023-04-27T11:01:42.445Z,31.83
2023-04-27T11:02:42.523Z,31.71
2023-04-27T11:03:42.406Z,31.54
2023-04-27T11:04:42.638Z,31.71
2023-04-27T11:05:42.337Z,31.73
2023-04-27T11:06:42.678Z,31.70
2023-04-27T11:07:42.277Z,31.74
2023-04-27T11:08:42.235Z,31.84
2023-04-27T11:09:42.214Z,31.71
2023-04-27T11:10:42.550Z,31.63
2023-04-27T11:11:42.551Z,31.77
2023-04-27T11:12:42.183Z,31.76
2023-04-27T11:13:42.146Z,31.61
2023-04-27T11:14:42.557Z,31.78
2023-04-27T11:15:42.093Z,31.84
2023-04-27T11:16:42.148Z,31.63
2023-04-27T11:17:43.067Z,31.73
2023-04-27T11:18:42.011Z,31.77
2023-04-27T11:19:41.976Z,31.71
2023-04-27T11:20:41.948Z,31.66
2023-04-27T11:21:42.062Z,31.84
2023-04-27T11:22:41.897Z,31.74
2023-04-27T11:23:41.901Z,31.73
2023-04-27T11:24:41.855Z,31.83
2023-04-27T11:25:41.840Z,31.71
2023-04-27T11:26:42.827Z,31.61
2023-04-27T11:27:41.790Z,31.84
2023-04-27T11:28:41.759Z,31.81
2023-04-27T11:29:41.747Z,31.74
2023-04-27T11:30:41.706Z,31.81
2023-04-27T11:31:42.094Z,31.85
2023-04-27T11:32:41.680Z,31.73
2023-04-27T11:33:41.677Z,31.75
2023-04-27T11:34:42.059Z,31.87
2023-04-27T11:35:41.699Z,31.80
2023-04-27T11:36:42.062Z,31.73
2023-04-27T11:37:41.693Z,31.75
2023-04-27T11:38:41.705Z,31.72
2023-04-27T11:39:42.087Z,31.77
2023-04-27T11:40:41.697Z,31.86
2023-04-27T11:41:42.061Z,31.73
2023-04-27T11:42:41.692Z,31.77
2023-04-27T11:43:41.723Z,31.91
2023-04-27T11:44:41.715Z,31.87
2023-04-27T11:45:41.703Z,31.66
2023-04-27T11:46:41.766Z,31.65
2023-04-27T11:47:41.753Z,31.76
2023-04-27T11:48:41.707Z,31.75
2023-04-27T11:49:42.068Z,31.66
2023-04-27T11:50:41.717Z,31.80
2023-04-27T11:51:41.707Z,31.73
2023-04-27T11:52:41.718Z,31.70
2023-04-27T11:53:41.726Z,31.87
2023-04-27T11:54:41.733Z,31.80
2023-04-27T11:55:41.759Z,31.80
2023-04-27T11:56:42.105Z,31.85
2023-04-27T11:57:41.756Z,31.80
2023-04-27T11:58:42.584Z,31.74
2023-04-27T11:59:41.739Z,31.81
2023-04-27T12:00:42.090Z,31.88
2023-04-27T12:01:41.683Z,31.70
2023-04-27T12:02:41.831Z,31.91
2023-04-27T12:04:41.237Z,31.73
2023-04-27T12:05:42.138Z,31.83
2023-04-27T12:06:41.562Z,31.90
2023-04-27T12:07:41.561Z,31.87
2023-04-27T12:08:41.513Z,31.71
2023-04-27T12:09:41.521Z,31.84
2023-04-27T12:10:41.573Z,31.89
2023-04-27T12:11:41.462Z,31.76
2023-04-27T12:12:41.478Z,31.88
2023-04-27T12:13:41.388Z,32.00
2023-04-27T12:14:41.365Z,31.85
2023-04-27T12:15:41.336Z,31.89
2023-04-27T12:16:41.340Z,32.02
2023-04-27T12:17:41.326Z,31.77
2023-04-27T12:18:41.264Z,31.85
2023-04-27T12:19:41.242Z,31.87
2023-04-27T12:20:41.224Z,31.94
2023-04-27T12:21:41.204Z,31.87
2023-04-27T12:22:41.195Z,31.91
2023-04-27T12:23:41.152Z,31.94
2023-04-27T12:24:42.082Z,31.63
2023-04-27T12:25:41.135Z,31.94
2023-04-27T12:26:41.081Z,35.67
2023-04-27T12:27:41.112Z,35.47
2023-04-27T12:28:41.023Z,36.96
2023-04-27T12:29:41.001Z,36.66
2023-04-27T12:30:41.007Z,35.88
2023-04-27T12:31:41.050Z,34.90
2023-04-27T12:32:41.014Z,34.55
2023-04-27T12:33:40.973Z,34.31
2023-04-27T12:34:40.980Z,34.26
2023-04-27T12:35:41.010Z,34.06
2023-04-27T12:36:41.047Z,34.00
2023-04-27T12:37:41.008Z,34.05
2023-04-27T12:38:41.017Z,33.99
2023-04-27T12:39:41.084Z,33.86
2023-04-27T12:40:41.061Z,33.92
2023-04-27T12:41:41.060Z,33.72
2023-04-27T12:42:41.114Z,33.85
2023-04-27T12:43:41.145Z,33.77
2023-04-27T12:44:41.112Z,33.77
2023-04-27T12:45:41.121Z,33.50
2023-04-27T12:46:41.242Z,33.46
2023-04-27T12:48:40.189Z,33.49
2023-04-27T12:49:41.122Z,33.27
2023-04-27T12:50:41.098Z,33.44
2023-04-27T12:51:41.083Z,33.26
2023-04-27T12:52:41.101Z,33.19
2023-04-27T12:53:41.028Z,33.31
2023-04-27T12:54:41.007Z,33.12
2023-04-27T12:55:40.994Z,33.14